Time;durP1;ratioP1;P1;durP2;ratioP2;P2;SDS_P1;SDS_P2;PMS_P1;PMS_P2;Temp;Humidity;BMP_temperature;BMP_pressure;BME280_temperature;BME280_humidity;BME280_pressure;Samples;Min_cycle;Max_cycle;Signal;HPM_P1;HPM_P2
2024/01/11 05:31:15;;;;;;;0.20;0.20;;;-0.10;74.60;;;;;;5584196;23;20140;-77
2024/01/11 05:33:41;;;;;;;0.20;0.20;;;0.00;74.70;;;;;;5013404;28;20124;-77
2024/01/11 05:36:08;;;;;;;0.20;0.20;;;0.00;74.50;;;;;;5017242;28;20030;-77
2024/01/11 05:38:34;;;;;;;0.20;0.20;;;0.00;74.40;;;;;;5013060;28;20394;-77
2024/01/11 05:41:00;;;;;;;0.20;0.20;;;0.00;74.00;;;;;;5007555;28;20018;-78
2024/01/11 05:43:25;;;;;;;0.20;0.20;;;0.00;74.00;;;;;;5017061;28;20033;-78
2024/01/11 05:45:51;;;;;;;0.20;0.20;;;0.00;74.30;;;;;;5011021;28;20466;-78
2024/01/11 05:48:17;;;;;;;0.20;0.20;;;0.00;74.10;;;;;;4997424;28;20093;-76
2024/01/11 05:50:43;;;;;;;0.20;0.20;;;0.10;74.00;;;;;;5015888;28;20489;-79
2024/01/11 05:53:09;;;;;;;0.20;0.20;;;0.00;73.90;;;;;;4999033;28;20022;-78
2024/01/11 05:55:35;;;;;;;0.20;0.20;;;0.00;74.10;;;;;;5012738;28;20049;-78
2024/01/11 05:58:01;;;;;;;0.20;0.20;;;0.00;74.20;;;;;;4997420;28;20446;-76
2024/01/11 06:00:26;;;;;;;0.20;0.20;;;0.00;74.10;;;;;;5004278;28;20165;-87
2024/01/11 06:02:52;;;;;;;0.20;0.20;;;0.00;74.00;;;;;;5015294;28;20053;-83
2024/01/11 06:05:18;;;;;;;0.20;0.20;;;0.00;73.80;;;;;;5016904;28;20049;-87
2024/01/11 06:07:43;;;;;;;0.10;0.10;;;0.00;73.80;;;;;;5003980;28;20034;-86
2024/01/11 06:10:10;;;;;;;0.20;0.20;;;0.10;74.10;;;;;;5012413;28;20026;-87
2024/01/11 06:12:35;;;;;;;0.20;0.20;;;0.00;74.10;;;;;;5012423;28;20034;-83
2024/01/11 06:15:02;;;;;;;0.20;0.20;;;0.00;74.10;;;;;;4997004;28;20076;-79
2024/01/11 06:17:28;;;;;;;0.20;0.20;;;0.10;73.80;;;;;;5008507;28;20032;-81
2024/01/11 06:19:54;;;;;;;0.13;0.13;;;0.00;74.00;;;;;;5016110;28;20126;-79
2024/01/11 06:22:20;;;;;;;0.20;0.20;;;0.00;74.00;;;;;;5016376;28;20022;-79
2024/01/11 06:24:46;;;;;;;0.20;0.20;;;0.00;74.10;;;;;;5015947;28;20018;-79
2024/01/11 06:27:11;;;;;;;0.10;0.10;;;0.20;74.10;;;;;;5014129;28;20116;-79
2024/01/11 06:29:37;;;;;;;0.20;0.20;;;0.00;73.90;;;;;;5014099;28;20021;-79
2024/01/11 06:32:03;;;;;;;0.20;0.20;;;0.00;74.20;;;;;;5016225;28;20104;-77
2024/01/11 06:34:29;;;;;;;0.20;0.20;;;0.00;74.30;;;;;;5015306;28;20034;-77
2024/01/11 06:36:55;;;;;;;0.20;0.20;;;0.00;74.40;;;;;;5014083;28;20109;-77
2024/01/11 06:39:21;;;;;;;0.20;0.20;;;0.00;74.40;;;;;;5010494;28;20038;-77
2024/01/11 06:41:46;;;;;;;0.17;0.17;;;0.10;74.40;;;;;;5013687;28;20030;-77
2024/01/11 06:44:12;;;;;;;0.10;0.10;;;0.10;74.10;;;;;;5015513;28;20051;-77
2024/01/11 06:46:41;;;;;;;0.10;0.10;;;0.20;74.10;;;;;;5014009;28;20402;-75
2024/01/11 06:49:10;;;;;;;0.20;0.20;;;0.20;73.90;;;;;;4996339;28;20033;-75
2024/01/11 06:51:35;;;;;;;0.10;0.10;;;0.30;73.80;;;;;;5010273;28;20074;-75
2024/01/11 06:54:01;;;;;;;0.20;0.20;;;0.30;73.50;;;;;;5016290;28;20571;-76
2024/01/11 06:56:27;;;;;;;0.20;0.20;;;0.20;73.80;;;;;;5001049;28;20145;-75
2024/01/11 06:58:54;;;;;;;0.20;0.20;;;0.20;74.00;;;;;;4996601;28;20105;-76
2024/01/11 07:01:19;;;;;;;0.20;0.20;;;0.20;74.00;;;;;;5012199;28;20030;-75
2024/01/11 07:03:45;;;;;;;0.10;0.10;;;0.20;74.30;;;;;;5008877;28;20022;-75
2024/01/11 07:06:11;;;;;;;0.10;0.10;;;0.10;74.20;;;;;;4996605;28;20042;-75
2024/01/11 07:08:37;;;;;;;0.20;0.20;;;0.10;74.20;;;;;;4996185;28;20044;-75
2024/01/11 07:11:03;;;;;;;0.20;0.20;;;0.10;74.50;;;;;;4996953;28;20041;-76
2024/01/11 07:13:30;;;;;;;0.20;0.20;;;0.20;74.50;;;;;;4996676;28;20023;-76
2024/01/11 07:15:57;;;;;;;0.20;0.20;;;0.10;74.50;;;;;;4996278;28;20050;-75
2024/01/11 07:18:22;;;;;;;0.20;0.20;;;0.20;74.70;;;;;;4995480;28;20038;-75
2024/01/11 07:20:48;;;;;;;0.20;0.20;;;0.20;74.80;;;;;;5004577;28;20029;-76
2024/01/11 07:23:14;;;;;;;0.20;0.20;;;0.20;74.60;;;;;;5013074;28;20034;-76
2024/01/11 07:25:40;;;;;;;0.20;0.20;;;0.20;74.80;;;;;;4996625;28;20502;-76
2024/01/11 07:28:07;;;;;;;0.20;0.20;;;0.20;75.00;;;;;;4995240;28;20034;-76
2024/01/11 07:30:32;;;;;;;0.20;0.20;;;0.30;74.90;;;;;;4996075;28;20073;-76
2024/01/11 07:32:58;;;;;;;0.20;0.20;;;0.40;74.90;;;;;;5000725;28;20029;-75
2024/01/11 07:35:23;;;;;;;0.20;0.20;;;0.30;74.70;;;;;;5011689;28;20022;-76
2024/01/11 07:37:49;;;;;;;0.20;0.20;;;0.40;74.90;;;;;;4995306;28;20027;-76
2024/01/11 07:40:16;;;;;;;0.20;0.20;;;0.40;74.70;;;;;;4997875;28;20037;-75
2024/01/11 07:42:42;;;;;;;0.20;0.20;;;0.50;74.80;;;;;;4996816;28;20029;-76
2024/01/11 07:45:12;;;;;;;0.20;0.20;;;0.50;74.60;;;;;;4998603;28;20041;-76
2024/01/11 07:47:39;;;;;;;0.20;0.20;;;0.60;74.70;;;;;;4999760;28;20030;-76
2024/01/11 07:50:12;;;;;;;0.20;0.20;;;0.60;74.60;;;;;;5014929;28;20110;-75
2024/01/11 07:52:39;;;;;;;0.20;0.20;;;0.60;74.70;;;;;;4999818;28;20046;-76
2024/01/11 07:55:08;;;;;;;0.20;0.20;;;0.60;74.80;;;;;;4999514;28;20038;-76
2024/01/11 07:57:37;;;;;;;0.20;0.20;;;0.50;74.70;;;;;;4998241;28;20054;-76
2024/01/11 08:00:06;;;;;;;0.15;0.15;;;0.50;75.00;;;;;;5006077;28;20040;-75
2024/01/11 08:02:33;;;;;;;0.10;0.10;;;0.60;75.00;;;;;;5018046;28;20017;-75
2024/01/11 08:05:01;;;;;;;0.20;0.20;;;0.60;74.80;;;;;;4998147;28;20486;-75
2024/01/11 08:07:27;;;;;;;0.20;0.20;;;0.60;74.90;;;;;;4999393;28;20500;-76
2024/01/11 08:09:53;;;;;;;0.20;0.20;;;0.50;74.90;;;;;;5001300;28;20105;-76
2024/01/11 08:12:19;;;;;;;0.20;0.20;;;0.50;75.00;;;;;;5004154;28;20023;-75
2024/01/11 08:14:46;;;;;;;0.20;0.20;;;0.50;75.30;;;;;;4999226;28;20068;-75
2024/01/11 08:17:15;;;;;;;0.20;0.20;;;0.60;75.20;;;;;;5002989;28;20025;-75
2024/01/11 08:19:44;;;;;;;0.10;0.10;;;0.60;74.80;;;;;;5003522;28;20035;-76
2024/01/11 08:22:11;;;;;;;0.20;0.20;;;0.70;74.80;;;;;;4999190;28;20147;-76
2024/01/11 08:24:37;;;;;;;0.20;0.20;;;0.60;74.60;;;;;;5003375;28;20029;-76
2024/01/11 08:27:03;;;;;;;0.10;0.10;;;0.60;74.80;;;;;;5014721;28;20021;-76
2024/01/11 08:29:29;;;;;;;0.15;0.15;;;0.60;74.50;;;;;;5016887;28;20021;-76
2024/01/11 08:31:54;;;;;;;0.10;0.10;;;0.60;74.50;;;;;;5016233;28;20045;-76
2024/01/11 08:34:21;;;;;;;0.20;0.20;;;0.60;74.60;;;;;;5016605;28;20032;-75
2024/01/11 08:36:47;;;;;;;0.20;0.20;;;0.70;74.50;;;;;;5017779;28;20516;-76
2024/01/11 08:39:14;;;;;;;0.20;0.20;;;0.70;74.50;;;;;;5016117;28;20049;-77
2024/01/11 08:41:40;;;;;;;0.17;0.17;;;0.60;74.60;;;;;;5016955;28;20030;-77
2024/01/11 08:44:06;;;;;;;0.10;0.10;;;0.70;74.80;;;;;;5017720;28;20057;-77
2024/01/11 08:46:33;;;;;;;0.20;0.20;;;0.70;74.90;;;;;;5016469;28;20018;-77
2024/01/11 08:49:00;;;;;;;0.20;0.20;;;0.70;74.70;;;;;;5004596;28;20022;-77
2024/01/11 08:51:27;;;;;;;0.20;0.20;;;0.70;74.80;;;;;;4999762;28;20050;-76
2024/01/11 08:53:53;;;;;;;0.20;0.20;;;0.80;74.50;;;;;;5012129;28;20532;-77
2024/01/11 08:56:19;;;;;;;0.20;0.20;;;0.80;74.60;;;;;;5015528;28;20050;-77
2024/01/11 08:58:44;;;;;;;0.20;0.20;;;0.80;74.20;;;;;;5013430;28;20057;-76
2024/01/11 09:01:11;;;;;;;0.20;0.20;;;0.80;74.50;;;;;;5017012;28;20022;-76
2024/01/11 09:03:36;;;;;;;0.20;0.20;;;0.80;74.30;;;;;;5011022;28;20044;-77
2024/01/11 09:06:03;;;;;;;0.20;0.20;;;0.80;74.50;;;;;;5001006;28;20026;-76
2024/01/11 09:08:32;;;;;;;0.10;0.10;;;0.80;74.60;;;;;;4998443;28;20552;-76
2024/01/11 09:10:59;;;;;;;0.20;0.20;;;0.90;74.50;;;;;;4998504;28;20027;-77
2024/01/11 09:13:25;;;;;;;0.20;0.20;;;1.10;74.40;;;;;;4998218;28;20026;-76
2024/01/11 09:15:55;;;;;;;0.20;0.20;;;1.10;74.20;;;;;;5004835;28;20089;-76
2024/01/11 09:18:21;;;;;;;0.20;0.20;;;1.20;74.00;;;;;;5012348;28;20022;-77
2024/01/11 09:20:49;;;;;;;0.20;0.20;;;1.20;73.70;;;;;;5016886;28;20038;-77
2024/01/11 09:23:15;;;;;;;0.20;0.20;;;1.20;73.70;;;;;;5017621;28;20025;-77
2024/01/11 09:25:41;;;;;;;0.20;0.20;;;1.30;73.90;;;;;;5011922;28;20038;-77
2024/01/11 09:28:07;;;;;;;0.20;0.20;;;1.40;73.70;;;;;;5014466;28;20032;-77
2024/01/11 09:30:33;;;;;;;0.20;0.20;;;1.50;73.60;;;;;;5017171;28;20401;-77
2024/01/11 09:32:59;;;;;;;0.20;0.20;;;1.40;73.40;;;;;;5017360;28;20393;-77
2024/01/11 09:35:25;;;;;;;0.20;0.20;;;1.50;73.50;;;;;;5017551;28;20034;-77
2024/01/11 09:37:51;;;;;;;0.15;0.15;;;1.60;73.20;;;;;;5003424;28;20022;-77
2024/01/11 09:40:18;;;;;;;0.20;0.20;;;1.50;73.40;;;;;;5003445;28;20469;-76
2024/01/11 09:42:44;;;;;;;0.20;0.20;;;1.50;73.30;;;;;;5009283;28;20022;-76
2024/01/11 09:45:15;;;;;;;0.20;0.20;;;1.60;73.30;;;;;;5006332;28;20497;-77
2024/01/11 09:47:42;;;;;;;0.20;0.20;;;1.50;73.00;;;;;;5016228;28;20022;-76
2024/01/11 09:50:08;;;;;;;0.20;0.20;;;1.50;73.10;;;;;;4997832;28;20093;-77
2024/01/11 09:52:34;;;;;;;0.20;0.20;;;1.50;73.20;;;;;;5000336;28;20026;-76
2024/01/11 09:55:01;;;;;;;0.20;0.20;;;1.60;73.20;;;;;;5017264;28;20065;-77
2024/01/11 09:57:32;;;;;;;0.20;0.20;;;1.70;73.00;;;;;;5008283;28;20127;-77
2024/01/11 09:59:58;;;;;;;0.10;0.10;;;1.80;72.80;;;;;;5015242;28;20026;-77
2024/01/11 10:02:27;;;;;;;0.20;0.20;;;1.90;72.40;;;;;;4999705;28;20038;-77
2024/01/11 10:04:53;;;;;;;0.20;0.20;;;2.00;72.10;;;;;;4997171;28;20085;-76
2024/01/11 10:07:22;;;;;;;0.10;0.10;;;2.00;71.90;;;;;;4997486;28;20030;-76
2024/01/11 10:09:49;;;;;;;0.10;0.10;;;2.00;72.10;;;;;;4997730;28;20037;-77
2024/01/11 10:12:15;;;;;;;0.20;0.20;;;2.00;72.10;;;;;;5006843;28;20026;-77
2024/01/11 10:14:41;;;;;;;0.20;0.20;;;2.00;72.20;;;;;;5015445;28;20034;-77
2024/01/11 10:17:07;;;;;;;0.20;0.20;;;2.20;72.00;;;;;;5015808;28;20381;-77
2024/01/11 10:19:33;;;;;;;0.20;0.20;;;2.20;71.80;;;;;;5014424;28;20119;-77
2024/01/11 10:21:58;;;;;;;0.20;0.20;;;2.30;71.50;;;;;;4997421;28;20031;-77
2024/01/11 10:24:28;;;;;;;0.17;0.17;;;2.40;71.50;;;;;;5002760;28;20111;-77
2024/01/11 10:26:59;;;;;;;0.20;0.20;;;2.50;71.40;;;;;;5013795;28;20029;-77
2024/01/11 10:29:31;;;;;;;0.10;0.10;;;2.50;70.80;;;;;;5016694;28;20064;-78
2024/01/11 10:31:56;;;;;;;0.20;0.20;;;2.50;71.30;;;;;;5004644;28;20129;-80
2024/01/11 10:34:23;;;;;;;0.20;0.20;;;2.50;71.30;;;;;;5013262;28;20112;-80
2024/01/11 10:36:50;;;;;;;0.20;0.20;;;2.60;71.10;;;;;;5011999;28;20447;-80
2024/01/11 10:39:17;;;;;;;0.10;0.10;;;2.70;71.00;;;;;;5003428;28;20438;-83
2024/01/11 10:41:50;;;;;;;0.10;0.10;;;2.70;70.90;;;;;;5005929;28;20026;-81
2024/01/11 10:44:21;;;;;;;0.10;0.10;;;2.80;70.80;;;;;;5020192;28;20033;-77
2024/01/11 10:46:55;;;;;;;0.20;0.20;;;2.90;70.60;;;;;;5013972;28;20125;-78
2024/01/11 10:49:23;;;;;;;0.20;0.20;;;3.00;70.70;;;;;;5014053;28;20058;-79
2024/01/11 10:52:19;;;;;;;0.20;0.20;;;3.00;70.40;;;;;;5015744;28;20026;-79
2024/01/11 10:54:46;;;;;;;0.20;0.20;;;3.00;70.10;;;;;;5012602;28;20042;-81
2024/01/11 10:57:12;;;;;;;0.20;0.20;;;3.10;70.10;;;;;;4995333;28;20033;-80
2024/01/11 10:59:40;;;;;;;0.20;0.20;;;3.20;69.90;;;;;;4998664;28;20061;-76
2024/01/11 11:02:12;;;;;;;0.20;0.20;;;3.20;69.90;;;;;;5014725;28;20050;-79
2024/01/11 11:04:40;;;;;;;0.20;0.20;;;3.20;69.90;;;;;;5020102;28;20022;-79
2024/01/11 11:07:07;;;;;;;0.20;0.20;;;3.30;69.90;;;;;;5012956;28;20033;-79
2024/01/11 11:09:35;;;;;;;0.10;0.10;;;3.30;70.00;;;;;;5014846;28;20064;-80
2024/01/11 11:12:02;;;;;;;0.10;0.10;;;3.40;69.80;;;;;;5013791;28;20049;-80
2024/01/11 11:14:28;;;;;;;0.10;0.10;;;3.50;69.70;;;;;;5013126;28;20498;-79
2024/01/11 11:16:54;;;;;;;0.20;0.20;;;3.50;69.50;;;;;;5009455;28;20037;-77
2024/01/11 11:19:20;;;;;;;0.10;0.10;;;3.60;69.80;;;;;;5016308;28;20034;-78
2024/01/11 11:21:48;;;;;;;0.20;0.20;;;3.70;69.60;;;;;;5012781;28;20022;-78
2024/01/11 11:24:16;;;;;;;0.20;0.20;;;3.70;69.50;;;;;;5000464;28;20030;-78
2024/01/11 11:26:42;;;;;;;0.20;0.20;;;3.70;69.50;;;;;;5000053;28;20026;-78
2024/01/11 11:29:09;;;;;;;0.20;0.20;;;3.80;69.20;;;;;;4998425;28;20027;-78
2024/01/11 11:31:55;;;;;;;0.15;0.15;;;3.90;69.30;;;;;;4998233;28;20565;-77
2024/01/11 11:34:39;;;;;;;0.10;0.10;;;4.00;68.90;;;;;;5017952;28;20074;-78
2024/01/11 11:37:05;;;;;;;0.20;0.20;;;4.00;69.10;;;;;;5013622;28;20070;-78
2024/01/11 11:39:32;;;;;;;0.20;0.20;;;4.10;69.10;;;;;;4998245;28;20034;-78
2024/01/11 11:42:00;;;;;;;0.20;0.20;;;4.20;68.80;;;;;;5017479;28;20026;-78
2024/01/11 11:44:26;;;;;;;0.17;0.17;;;4.20;68.90;;;;;;5004403;28;20031;-78
2024/01/11 11:46:51;;;;;;;0.10;0.10;;;4.30;68.40;;;;;;4998760;28;20022;-79
2024/01/11 11:49:17;;;;;;;0.10;0.10;;;4.30;68.60;;;;;;4999708;28;20018;-78
2024/01/11 11:51:43;;;;;;;0.20;0.20;;;4.40;68.70;;;;;;5003640;28;20030;-78
2024/01/11 11:54:09;;;;;;;0.15;0.15;;;4.50;68.60;;;;;;4998922;28;20394;-83
2024/01/11 11:56:36;;;;;;;0.20;0.20;;;4.50;68.30;;;;;;4999257;28;20497;-77
2024/01/11 11:59:03;;;;;;;0.10;0.10;;;4.60;68.30;;;;;;4999740;28;20022;-80
2024/01/11 12:01:31;;;;;;;0.20;0.20;;;4.60;68.20;;;;;;5016708;28;20033;-80
2024/01/11 12:03:57;;;;;;;0.10;0.10;;;4.70;68.00;;;;;;5018970;28;20058;-80
2024/01/11 12:06:24;;;;;;;0.10;0.10;;;4.80;67.90;;;;;;5007121;28;20556;-79
2024/01/11 12:08:52;;;;;;;0.20;0.20;;;4.90;68.00;;;;;;4999311;28;20029;-81
2024/01/11 12:11:21;;;;;;;0.20;0.20;;;4.90;67.50;;;;;;4999598;28;20026;-77
2024/01/11 12:13:48;;;;;;;0.20;0.20;;;5.00;67.80;;;;;;5013313;28;20022;-81
2024/01/11 12:16:13;;;;;;;0.17;0.17;;;5.10;67.50;;;;;;4997981;28;20061;-79
2024/01/11 12:18:40;;;;;;;0.10;0.10;;;5.20;67.60;;;;;;4999136;28;20081;-78
2024/01/11 12:21:07;;;;;;;0.20;0.20;;;5.20;67.40;;;;;;4997787;28;20030;-82
2024/01/11 12:23:34;;;;;;;0.10;0.10;;;5.20;67.00;;;;;;4999088;28;20014;-85
2024/01/11 12:26:05;;;;;;;0.20;0.20;;;5.30;67.00;;;;;;4999276;28;20486;-82
2024/01/11 12:28:32;;;;;;;0.20;0.20;;;5.30;66.90;;;;;;5016575;28;20021;-86
2024/01/11 12:30:57;;;;;;;0.10;0.10;;;5.50;67.00;;;;;;4998134;28;20050;-82
2024/01/11 12:33:24;;;;;;;0.20;0.20;;;5.50;66.80;;;;;;5006700;28;20018;-81
2024/01/11 12:35:50;;;;;;;0.20;0.20;;;5.50;66.80;;;;;;5001224;28;20034;-79
2024/01/11 12:38:16;;;;;;;0.10;0.10;;;5.60;66.40;;;;;;5014277;28;20026;-79
2024/01/11 12:40:41;;;;;;;0.10;0.10;;;5.60;66.20;;;;;;5008447;28;20037;-78
2024/01/11 12:43:08;;;;;;;0.15;0.15;;;5.60;66.30;;;;;;5017140;28;20076;-81
2024/01/11 12:45:35;;;;;;;0.20;0.20;;;5.70;66.10;;;;;;5017290;28;20057;-80
2024/01/11 12:48:03;;;;;;;0.10;0.10;;;5.60;66.00;;;;;;5013426;28;20049;-81
2024/01/11 12:50:33;;;;;;;0.10;0.10;;;5.60;65.80;;;;;;4998553;28;20031;-83
2024/01/11 12:53:26;;;;;;;0.10;0.10;;;5.60;66.00;;;;;;4997465;28;20034;-83
2024/01/11 12:56:10;;;;;;;0.10;0.10;;;5.70;66.00;;;;;;4997702;28;20034;-80
2024/01/11 12:58:37;;;;;;;0.15;0.15;;;5.70;65.70;;;;;;4996966;28;20036;-80
2024/01/11 13:01:04;;;;;;;0.10;0.10;;;5.70;65.60;;;;;;5010698;28;20030;-81
2024/01/11 13:03:30;;;;;;;0.10;0.10;;;5.70;65.60;;;;;;5016911;28;20030;-80
2024/01/11 13:05:57;;;;;;;0.10;0.10;;;5.80;65.70;;;;;;5012002;28;20030;-79
2024/01/11 13:08:23;;;;;;;0.10;0.10;;;5.80;65.80;;;;;;4997303;28;20025;-79
2024/01/11 13:10:49;;;;;;;0.10;0.10;;;5.80;65.90;;;;;;4998280;28;20390;-80
2024/01/11 13:13:15;;;;;;;0.20;0.20;;;5.90;65.90;;;;;;4997941;28;20113;-79
2024/01/11 13:15:41;;;;;;;0.10;0.10;;;5.90;65.80;;;;;;4998333;28;20062;-77
2024/01/11 13:18:06;;;;;;;0.10;0.10;;;5.90;65.40;;;;;;5010761;28;20033;-78
2024/01/11 13:20:32;;;;;;;0.10;0.10;;;6.00;65.40;;;;;;5013282;28;20030;-78
2024/01/11 13:23:20;;;;;;;0.10;0.10;;;6.00;65.30;;;;;;4998304;28;20027;-79
2024/01/11 13:25:47;;;;;;;0.20;0.20;;;6.00;65.30;;;;;;4997666;28;20026;-78
2024/01/11 13:28:13;;;;;;;0.10;0.10;;;6.00;65.10;;;;;;5013264;28;20015;-79
2024/01/11 13:30:42;;;;;;;0.20;0.20;;;6.00;65.10;;;;;;5012740;28;20050;-79
2024/01/11 13:33:10;;;;;;;0.10;0.10;;;6.00;65.10;;;;;;5012327;28;20082;-79
2024/01/11 13:35:37;;;;;;;0.20;0.20;;;6.00;65.10;;;;;;4998041;28;20037;-78
2024/01/11 13:38:03;;;;;;;0.17;0.17;;;6.00;65.00;;;;;;4997588;28;20036;-78
2024/01/11 13:40:32;;;;;;;0.10;0.10;;;6.00;65.10;;;;;;5004496;28;20041;-79
2024/01/11 13:42:58;;;;;;;0.10;0.10;;;6.10;64.90;;;;;;5015122;28;20417;-78
2024/01/11 13:45:25;;;;;;;0.15;0.15;;;6.10;64.80;;;;;;5016203;28;20030;-79
2024/01/11 13:47:53;;;;;;;0.10;0.10;;;6.10;64.80;;;;;;4996601;28;20049;-79
2024/01/11 13:50:20;;;;;;;0.10;0.10;;;6.10;64.90;;;;;;4996258;28;20093;-78
2024/01/11 13:52:46;;;;;;;0.20;0.20;;;6.10;64.90;;;;;;4997544;28;20018;-78
2024/01/11 13:55:13;;;;;;;0.10;0.10;;;6.10;64.90;;;;;;4997367;28;20046;-78
2024/01/11 13:57:39;;;;;;;0.15;0.15;;;6.10;64.70;;;;;;4996992;28;20022;-78
2024/01/11 14:00:05;;;;;;;0.20;0.20;;;6.00;64.80;;;;;;5001715;28;20464;-78
2024/01/11 14:02:31;;;;;;;0.10;0.10;;;6.10;65.00;;;;;;5016836;28;20022;-79
2024/01/11 14:04:57;;;;;;;0.20;0.20;;;6.10;65.10;;;;;;5016628;28;20109;-75
2024/01/11 14:07:23;;;;;;;0.17;0.17;;;6.10;64.90;;;;;;5003000;28;20105;-82
2024/01/11 14:09:50;;;;;;;0.20;0.20;;;6.00;65.10;;;;;;4997535;28;20026;-81
2024/01/11 14:12:16;;;;;;;0.10;0.10;;;6.10;65.10;;;;;;4995803;28;20476;-81
2024/01/11 14:14:42;;;;;;;0.20;0.20;;;6.10;65.20;;;;;;4997359;28;20026;-81
2024/01/11 14:17:10;;;;;;;0.10;0.10;;;6.10;65.30;;;;;;5014858;28;20030;-81
2024/01/11 14:19:36;;;;;;;0.10;0.10;;;6.00;65.20;;;;;;5015156;28;20037;-81
2024/01/11 14:22:02;;;;;;;0.10;0.10;;;6.00;65.40;;;;;;5009119;28;20033;-81
2024/01/11 14:24:28;;;;;;;0.10;0.10;;;6.00;65.40;;;;;;4997045;28;20026;-81
2024/01/11 14:26:54;;;;;;;0.20;0.20;;;6.00;65.40;;;;;;5000303;28;20026;-81
2024/01/11 14:29:19;;;;;;;0.10;0.10;;;6.00;65.60;;;;;;4996637;28;20030;-80
2024/01/11 14:31:45;;;;;;;0.10;0.10;;;5.90;65.60;;;;;;4996933;28;20057;-81
2024/01/11 14:34:11;;;;;;;0.10;0.10;;;6.00;65.70;;;;;;5010582;28;20033;-81
2024/01/11 14:36:37;;;;;;;0.20;0.20;;;6.00;65.70;;;;;;5015619;28;20025;-81
2024/01/11 14:39:04;;;;;;;0.10;0.10;;;5.90;65.80;;;;;;5003871;28;20033;-81
2024/01/11 14:41:33;;;;;;;0.10;0.10;;;5.80;65.90;;;;;;5011603;28;20030;-81
2024/01/11 14:44:03;;;;;;;0.15;0.15;;;5.80;66.10;;;;;;5016639;28;20037;-81
2024/01/11 14:46:29;;;;;;;0.10;0.10;;;5.70;66.20;;;;;;5016374;28;20072;-81
2024/01/11 14:48:54;;;;;;;0.10;0.10;;;5.80;66.40;;;;;;4996747;28;20031;-81
2024/01/11 14:51:20;;;;;;;0.10;0.10;;;5.80;66.40;;;;;;4996826;28;20014;-81
2024/01/11 14:53:46;;;;;;;0.10;0.10;;;5.80;66.40;;;;;;4999918;28;20371;-81
2024/01/11 14:56:12;;;;;;;0.10;0.10;;;5.80;66.70;;;;;;5001101;28;20560;-81
2024/01/11 14:58:38;;;;;;;0.17;0.17;;;5.90;66.80;;;;;;5000393;28;20486;-81
2024/01/11 15:01:04;;;;;;;0.20;0.20;;;5.80;66.60;;;;;;5018853;28;20095;-81
2024/01/11 15:03:30;;;;;;;0.10;0.10;;;5.80;66.80;;;;;;5011798;28;20088;-81
2024/01/11 15:05:56;;;;;;;0.10;0.10;;;5.80;66.70;;;;;;5010697;28;20098;-81
2024/01/11 15:08:21;;;;;;;0.10;0.10;;;5.80;66.80;;;;;;5000452;28;20030;-81
2024/01/11 15:10:48;;;;;;;0.10;0.10;;;5.80;66.90;;;;;;5000653;28;20118;-81
2024/01/11 15:13:14;;;;;;;0.10;0.10;;;5.70;67.00;;;;;;5000383;28;20037;-81
2024/01/11 15:15:40;;;;;;;0.10;0.10;;;5.80;67.10;;;;;;5000704;28;20035;-81
2024/01/11 15:18:05;;;;;;;0.10;0.10;;;5.70;67.10;;;;;;5000405;28;20505;-81
2024/01/11 15:20:31;;;;;;;0.10;0.10;;;5.70;67.50;;;;;;5000459;28;20018;-81
2024/01/11 15:22:57;;;;;;;0.10;0.10;;;5.60;67.70;;;;;;5001394;28;20494;-81
2024/01/11 15:25:23;;;;;;;0.10;0.10;;;5.60;68.00;;;;;;5004010;28;20022;-81
2024/01/11 15:27:49;;;;;;;0.10;0.10;;;5.60;68.00;;;;;;5018258;28;20116;-81
2024/01/11 15:30:15;;;;;;;0.10;0.10;;;5.60;68.00;;;;;;5018507;28;20481;-81
2024/01/11 15:32:42;;;;;;;0.10;0.10;;;5.60;68.30;;;;;;5015515;28;20096;-81
2024/01/11 15:35:08;;;;;;;0.10;0.10;;;5.60;68.40;;;;;;5019460;28;20026;-81
2024/01/11 15:37:36;;;;;;;0.10;0.10;;;5.50;68.70;;;;;;5019750;28;20082;-82
2024/01/11 15:40:03;;;;;;;0.10;0.10;;;5.50;69.00;;;;;;5018073;28;20385;-81
2024/01/11 15:42:32;;;;;;;0.10;0.10;;;5.40;69.30;;;;;;5012040;28;20030;-81
2024/01/11 15:44:58;;;;;;;0.10;0.10;;;5.30;69.60;;;;;;5000121;28;20042;-80
2024/01/11 15:47:23;;;;;;;0.10;0.10;;;5.40;69.80;;;;;;4999696;28;20026;-80
2024/01/11 15:49:49;;;;;;;0.10;0.10;;;5.30;70.30;;;;;;4999748;28;20022;-80
2024/01/11 15:52:15;;;;;;;0.10;0.10;;;5.30;70.70;;;;;;4999818;28;20030;-80
2024/01/11 15:54:41;;;;;;;0.13;0.13;;;5.20;71.50;;;;;;4998513;28;20061;-80
2024/01/11 15:57:07;;;;;;;0.10;0.10;;;5.20;71.70;;;;;;4998537;28;20045;-80
2024/01/11 15:59:33;;;;;;;0.10;0.10;;;5.20;72.00;;;;;;5000812;28;20057;-80
2024/01/11 16:01:58;;;;;;;0.10;0.10;;;5.20;72.40;;;;;;5018998;28;20491;-80
2024/01/11 16:04:25;;;;;;;0.10;0.10;;;5.10;72.70;;;;;;5016638;28;20390;-80
2024/01/11 16:06:51;;;;;;;0.17;0.17;;;5.00;72.90;;;;;;4999870;28;20026;-80
2024/01/11 16:09:18;;;;;;;0.10;0.10;;;5.00;73.00;;;;;;5001060;28;20021;-80
2024/01/11 16:11:45;;;;;;;0.10;0.10;;;5.00;73.20;;;;;;5008482;28;20101;-80
2024/01/11 16:14:10;;;;;;;0.10;0.10;;;4.90;73.50;;;;;;4999273;28;20030;-80
2024/01/11 16:16:36;;;;;;;0.10;0.10;;;4.80;73.70;;;;;;4999323;28;20058;-80
2024/01/11 16:19:02;;;;;;;0.10;0.10;;;4.70;73.90;;;;;;4998201;28;20026;-80
2024/01/11 16:21:31;;;;;;;0.10;0.10;;;4.70;74.00;;;;;;4999412;28;20462;-80
2024/01/11 16:24:00;;;;;;;0.10;0.10;;;4.60;74.10;;;;;;5002350;28;20021;-80
2024/01/11 16:26:26;;;;;;;0.10;0.10;;;4.60;74.00;;;;;;5004687;28;20026;-81
2024/01/11 16:28:51;;;;;;;0.20;0.20;;;4.60;73.90;;;;;;4997844;28;20111;-80
2024/01/11 16:31:22;;;;;;;0.10;0.10;;;4.50;73.90;;;;;;4999091;28;20433;-80
2024/01/11 16:33:48;;;;;;;0.10;0.10;;;4.50;74.00;;;;;;5007840;28;20025;-80
2024/01/11 16:36:15;;;;;;;0.20;0.20;;;4.40;73.90;;;;;;5018735;28;20030;-80
2024/01/11 16:38:42;;;;;;;0.10;0.10;;;4.40;73.90;;;;;;5017492;28;20437;-80
2024/01/11 16:41:08;;;;;;;0.10;0.10;;;4.40;73.70;;;;;;5011535;28;20107;-80
2024/01/11 16:43:35;;;;;;;0.10;0.10;;;4.30;73.50;;;;;;5018278;28;20026;-80
2024/01/11 16:46:01;;;;;;;0.20;0.20;;;4.30;73.40;;;;;;5014246;28;20030;-77
2024/01/11 16:48:27;;;;;;;0.10;0.10;;;4.20;73.50;;;;;;5016909;28;20030;-81
2024/01/11 16:50:53;;;;;;;0.10;0.10;;;4.20;73.40;;;;;;5018331;28;20025;-80
2024/01/11 16:53:20;;;;;;;0.10;0.10;;;4.20;73.40;;;;;;5018258;28;20029;-81
2024/01/11 16:55:46;;;;;;;0.10;0.10;;;4.20;73.00;;;;;;5015484;28;20508;-82
2024/01/11 16:58:12;;;;;;;0.20;0.20;;;4.20;73.10;;;;;;5015327;28;20022;-82
2024/01/11 17:00:41;;;;;;;0.10;0.10;;;4.10;73.00;;;;;;5013187;28;20033;-83
2024/01/11 17:03:07;;;;;;;0.20;0.20;;;4.10;73.10;;;;;;5016171;28;20475;-82
2024/01/11 17:05:36;;;;;;;0.10;0.10;;;4.10;72.90;;;;;;5006345;28;20089;-78
2024/01/11 17:08:05;;;;;;;0.10;0.10;;;4.00;72.90;;;;;;4998404;28;20029;-80
2024/01/11 17:10:32;;;;;;;0.10;0.10;;;4.00;73.00;;;;;;5013519;28;20023;-85
2024/01/11 17:12:59;;;;;;;0.10;0.10;;;3.90;73.20;;;;;;5001331;28;20113;-83
2024/01/11 17:15:26;;;;;;;0.10;0.10;;;3.80;73.40;;;;;;5015443;28;20026;-84
2024/01/11 17:17:52;;;;;;;0.17;0.17;;;3.80;73.40;;;;;;5017020;28;20018;-87
2024/01/11 17:20:18;;;;;;;0.20;0.20;;;3.70;73.70;;;;;;5016703;28;20060;-81
2024/01/11 17:22:43;;;;;;;0.13;0.13;;;3.70;73.80;;;;;;5015386;28;20037;-78
2024/01/11 17:25:09;;;;;;;0.10;0.10;;;3.70;73.80;;;;;;5009121;28;20101;-84
2024/01/11 17:27:34;;;;;;;0.10;0.10;;;3.60;74.00;;;;;;5009356;28;20061;-81
2024/01/11 17:30:00;;;;;;;0.10;0.10;;;3.60;74.20;;;;;;5008592;28;20030;-79
2024/01/11 17:32:27;;;;;;;0.10;0.10;;;3.60;74.30;;;;;;5007132;28;20053;-78
2024/01/11 17:34:54;;;;;;;0.17;0.17;;;3.50;74.60;;;;;;5013068;28;20070;-81
2024/01/11 17:37:20;;;;;;;0.10;0.10;;;3.50;74.80;;;;;;5011989;28;20034;-81
2024/01/11 17:39:50;;;;;;;0.15;0.15;;;3.50;74.90;;;;;;5012654;28;20014;-81
2024/01/11 17:42:15;;;;;;;0.10;0.10;;;3.60;75.00;;;;;;5014215;28;20030;-81
2024/01/11 17:44:41;;;;;;;0.10;0.10;;;3.50;75.20;;;;;;5012948;28;20568;-81
2024/01/11 17:47:07;;;;;;;0.20;0.20;;;3.50;75.40;;;;;;5014820;28;20041;-82
2024/01/11 17:49:33;;;;;;;0.17;0.17;;;3.40;75.50;;;;;;5016329;28;20037;-81
2024/01/11 17:51:59;;;;;;;0.10;0.10;;;3.40;75.70;;;;;;5012013;28;20061;-81
2024/01/11 17:54:24;;;;;;;0.10;0.10;;;3.50;75.90;;;;;;5010246;28;20022;-85
2024/01/11 17:56:50;;;;;;;0.10;0.10;;;3.50;75.90;;;;;;5011516;28;20060;-80
2024/01/11 17:59:16;;;;;;;0.10;0.10;;;3.50;76.00;;;;;;4998746;28;20027;-79
2024/01/11 18:01:42;;;;;;;0.10;0.10;;;3.50;76.10;;;;;;5016108;28;20555;-79
2024/01/11 18:04:07;;;;;;;0.20;0.20;;;3.40;76.40;;;;;;5015612;28;20022;-79
2024/01/11 18:06:33;;;;;;;0.10;0.10;;;3.40;76.80;;;;;;5014009;28;20050;-84
2024/01/11 18:08:59;;;;;;;0.20;0.20;;;3.30;77.10;;;;;;5013701;28;20097;-83
2024/01/11 18:11:26;;;;;;;0.20;0.20;;;3.40;77.20;;;;;;5029487;28;20057;-80
2024/01/11 18:13:52;;;;;;;0.17;0.17;;;3.30;77.50;;;;;;5015834;28;20029;-78
2024/01/11 18:16:18;;;;;;;0.10;0.10;;;3.30;77.70;;;;;;5010360;28;20117;-81
2024/01/11 18:18:47;;;;;;;0.10;0.10;;;3.30;77.80;;;;;;5015038;28;20058;-80
2024/01/11 18:21:13;;;;;;;0.10;0.10;;;3.40;77.60;;;;;;5015445;28;20025;-80
2024/01/11 18:23:39;;;;;;;0.20;0.20;;;3.30;77.60;;;;;;5013598;28;20093;-79
2024/01/11 18:26:05;;;;;;;0.20;0.20;;;3.20;78.00;;;;;;5012740;28;20033;-78